Terminal Aerodrome Forecast
Issued by NWS Wilmington, OH

Current Version | Previous Version | Graphics & Text | Print | Product List | Glossary On
Versions: 1 2 3 4 5 6 7 8 9 10 11 12 13 14 15 16 17 18 19 20 21 22 23 24 25
000
FTUS41 KILN 010800 AAB
TAFDAY
TAF AMD
KDAY 010856Z 0109/0206 01005KT 2SM BR SCT001 OVC012
      TEMPO 0109/0112 1/4SM FG VV001
     FM011400 02005KT 3SM BR BKN005
     FM011500 04003KT P6SM BKN015
     FM011600 08005KT P6SM FEW035
     FM012300 11004KT P6SM SKC=

USA.gov is the U.S. government's official web portal to all federal, state and local government web resources and services.